Time,TemperatureF,DewpointF,PressureIn,WindDirection,WindDirectionDegrees,WindSpeedMPH,WindSpeedGustMPH,Humidity,HourlyPrecipIn,Conditions,Clouds,dailyrainin,SoftwareType,DateUTC
2013-03-02 00:02:00,38.2,33.0,30.15,WSW,253,0.0,0.0,81,0.00,,,0.00,weatherlink.com 1.10,2013-03-02 06:02:00,
2013-03-02 00:10:00,37.5,32.5,30.15,WSW,253,0.0,0.0,82,0.00,,,0.00,Wunderground v.1.15,2013-03-02 06:10:00,
2013-03-02 00:17:00,36.6,32.0,30.15,WSW,253,0.0,0.0,83,0.00,,,0.00,weatherlink.com 1.10,2013-03-02 06:17:00,
2013-03-02 00:25:00,35.9,31.8,30.15,WSW,254,0.0,0.0,85,0.00,,,0.00,Wunderground v.1.15,2013-03-02 06:25:00,
2013-03-02 00:30:00,35.5,32.0,30.15,WSW,253,0.0,0.0,87,0.00,,,0.00,Wunderground v.1.15,2013-03-02 06:30:00,
2013-03-02 00:35:00,35.3,31.8,30.15,WSW,253,0.0,0.0,87,0.00,,,0.00,Wunderground v.1.15,2013-03-02 06:35:00,
2013-03-02 00:40:00,35.2,32.3,30.15,WSW,253,0.0,0.0,89,0.00,,,0.00,Wunderground v.1.15,2013-03-02 06:40:00,
2013-03-02 00:46:00,35.2,32.0,30.15,WSW,253,0.0,0.0,89,0.00,,,0.00,weatherlink.com 1.10,2013-03-02 06:46:00,
2013-03-02 00:55:00,34.9,32.3,30.14,WSW,253,0.0,0.0,90,0.00,,,0.00,Wunderground v.1.15,2013-03-02 06:55:00,
2013-03-02 01:00:00,34.8,32.2,30.15,WSW,253,0.0,0.0,90,0.00,,,0.00,Wunderground v.1.15,2013-03-02 07:00:00,
2013-03-02 01:05:00,34.7,32.1,30.14,WSW,253,0.0,0.0,90,0.00,,,0.00,Wunderground v.1.15,2013-03-02 07:05:00,
2013-03-02 01:15:00,34.8,32.4,30.14,WNW,297,0.0,0.0,91,0.00,,,0.00,Wunderground v.1.15,2013-03-02 07:15:00,
2013-03-02 01:25:00,34.7,32.1,30.14,WNW,297,0.0,0.0,90,0.00,,,0.00,Wunderground v.1.15,2013-03-02 07:25:00,
2013-03-02 01:30:00,34.7,32.1,30.14,WNW,292,0.0,0.0,90,0.00,,,0.00,Wunderground v.1.15,2013-03-02 07:30:00,
2013-03-02 01:40:00,34.6,32.0,30.14,SW,233,0.0,0.0,90,0.00,,,0.00,Wunderground v.1.15,2013-03-02 07:40:00,
2013-03-02 01:45:00,34.4,31.5,30.14,SW,235,0.0,0.0,89,0.00,,,0.00,Wunderground v.1.15,2013-03-02 07:45:00,
2013-03-02 01:50:00,34.5,31.6,30.14,SW,235,0.0,0.0,89,0.00,,,0.00,Wunderground v.1.15,2013-03-02 07:50:00,
2013-03-02 02:00:00,34.0,31.1,30.13,SW,234,0.0,0.0,89,0.00,,,0.00,Wunderground v.1.15,2013-03-02 08:00:00,
2013-03-02 02:05:00,34.0,31.4,30.13,West,259,0.0,0.0,90,0.00,,,0.00,Wunderground v.1.15,2013-03-02 08:05:00,
2013-03-02 02:15:00,33.7,31.1,30.13,West,260,0.0,0.0,90,0.00,,,0.00,Wunderground v.1.15,2013-03-02 08:15:00,
2013-03-02 02:20:00,33.6,31.0,30.13,West,260,0.0,0.0,90,0.00,,,0.00,Wunderground v.1.15,2013-03-02 08:20:00,
2013-03-02 02:25:00,33.6,31.0,30.13,West,264,0.0,0.0,90,0.00,,,0.00,Wunderground v.1.15,2013-03-02 08:25:00,
2013-03-02 02:32:00,33.7,31.0,30.13,WSW,246,0.0,0.0,90,0.00,,,0.00,weatherlink.com 1.10,2013-03-02 08:32:00,
2013-03-02 02:40:00,33.6,30.7,30.13,WSW,246,0.0,0.0,89,0.00,,,0.00,Wunderground v.1.15,2013-03-02 08:40:00,
2013-03-02 02:45:00,33.3,30.4,30.13,WSW,246,0.0,0.0,89,0.00,,,0.00,Wunderground v.1.15,2013-03-02 08:45:00,
2013-03-02 02:50:00,33.2,30.6,30.13,WSW,245,0.0,0.0,90,0.00,,,0.00,Wunderground v.1.15,2013-03-02 08:50:00,
2013-03-02 02:55:00,33.2,30.6,30.13,SSW,203,0.0,0.0,90,0.00,,,0.00,Wunderground v.1.15,2013-03-02 08:55:00,
2013-03-02 03:00:00,33.1,30.5,30.12,SSW,208,0.0,0.0,90,0.00,,,0.00,Wunderground v.1.15,2013-03-02 09:00:00,
2013-03-02 03:05:00,33.2,30.9,30.12,West,263,0.0,0.0,91,0.00,,,0.00,Wunderground v.1.15,2013-03-02 09:05:00,
2013-03-02 03:15:00,33.1,30.8,30.12,North,4,0.0,0.0,91,0.00,,,0.00,Wunderground v.1.15,2013-03-02 09:15:00,
2013-03-02 03:20:00,33.2,30.6,30.12,NW,304,0.0,0.0,90,0.00,,,0.00,Wunderground v.1.15,2013-03-02 09:20:00,
2013-03-02 03:25:00,33.1,30.2,30.12,WNW,303,0.0,0.0,89,0.00,,,0.00,Wunderground v.1.15,2013-03-02 09:25:00,
2013-03-02 03:30:00,33.0,30.1,30.12,NNW,341,0.0,0.0,89,0.00,,,0.00,Wunderground v.1.15,2013-03-02 09:30:00,
2013-03-02 03:35:00,32.9,30.0,30.12,NNW,342,0.0,0.0,89,0.00,,,0.00,Wunderground v.1.15,2013-03-02 09:35:00,
2013-03-02 03:45:00,32.7,30.1,30.12,WNW,295,0.0,0.0,90,0.00,,,0.00,Wunderground v.1.15,2013-03-02 09:45:00,
2013-03-02 03:55:00,32.5,29.9,30.13,SE,145,0.0,0.0,90,0.00,,,0.00,Wunderground v.1.15,2013-03-02 09:55:00,
2013-03-02 04:00:00,32.3,29.7,30.13,SE,145,0.0,0.0,90,0.00,,,0.00,Wunderground v.1.15,2013-03-02 10:00:00,
2013-03-02 04:05:00,32.0,29.4,30.13,West,269,0.0,0.0,90,0.00,,,0.00,Wunderground v.1.15,2013-03-02 10:05:00,
2013-03-02 04:15:00,31.5,28.9,30.13,West,269,0.0,0.0,90,0.00,,,0.00,Wunderground v.1.15,2013-03-02 10:15:00,
2013-03-02 04:24:00,31.2,28.9,30.13,West,269,0.0,0.0,91,0.00,,,0.00,Wunderground v.1.15,2013-03-02 10:24:00,
2013-03-02 04:29:00,30.8,28.5,30.13,West,268,0.0,0.0,91,0.00,,,0.00,Wunderground v.1.15,2013-03-02 10:29:00,
2013-03-02 04:40:00,30.7,28.7,30.13,West,268,0.0,0.0,92,0.00,,,0.00,Wunderground v.1.15,2013-03-02 10:40:00,
2013-03-02 04:45:00,30.5,28.5,30.13,West,268,0.0,0.0,92,0.00,,,0.00,Wunderground v.1.15,2013-03-02 10:45:00,
2013-03-02 04:55:00,30.3,28.5,30.13,West,269,0.0,0.0,93,0.00,,,0.00,Wunderground v.1.15,2013-03-02 10:55:00,
2013-03-02 05:03:00,30.0,28.0,30.13,West,269,0.0,0.0,92,0.00,,,0.00,weatherlink.com 1.10,2013-03-02 11:03:00,
2013-03-02 05:10:00,30.1,28.6,30.14,West,267,0.0,0.0,94,0.00,,,0.00,Wunderground v.1.15,2013-03-02 11:10:00,
2013-03-02 05:15:00,30.2,28.7,30.14,West,267,0.0,0.0,94,0.00,,,0.00,Wunderground v.1.15,2013-03-02 11:15:00,
2013-03-02 05:20:00,30.2,28.7,30.14,West,267,0.0,0.0,94,0.00,,,0.00,Wunderground v.1.15,2013-03-02 11:20:00,
2013-03-02 05:25:00,30.2,28.7,30.15,West,266,0.0,0.0,94,0.00,,,0.00,Wunderground v.1.15,2013-03-02 11:25:00,
2013-03-02 05:33:00,29.6,28.0,30.14,West,266,0.0,0.0,93,0.00,,,0.00,weatherlink.com 1.10,2013-03-02 11:33:00,
2013-03-02 05:39:00,29.2,27.7,30.15,West,266,0.0,0.0,94,0.00,,,0.00,Wunderground v.1.15,2013-03-02 11:39:00,
2013-03-02 05:45:00,29.2,27.7,30.15,West,266,0.0,0.0,94,0.00,,,0.00,Wunderground v.1.15,2013-03-02 11:45:00,
2013-03-02 05:50:00,29.1,27.6,30.15,West,267,0.0,0.0,94,0.00,,,0.00,Wunderground v.1.15,2013-03-02 11:50:00,
2013-03-02 05:55:00,29.0,27.5,30.15,West,266,0.0,0.0,94,0.00,,,0.00,Wunderground v.1.15,2013-03-02 11:55:00,
2013-03-02 06:00:00,28.8,27.3,30.15,West,266,0.0,0.0,94,0.00,,,0.00,Wunderground v.1.15,2013-03-02 12:00:00,
2013-03-02 06:05:00,28.5,27.0,30.15,West,266,0.0,0.0,94,0.00,,,0.00,Wunderground v.1.15,2013-03-02 12:05:00,
2013-03-02 06:15:00,28.5,27.3,30.15,West,266,0.0,0.0,95,0.00,,,0.00,Wunderground v.1.15,2013-03-02 12:15:00,
2013-03-02 06:20:00,28.6,27.4,30.16,West,266,0.0,0.0,95,0.00,,,0.00,Wunderground v.1.15,2013-03-02 12:20:00,
2013-03-02 06:25:00,28.6,27.4,30.16,West,266,0.0,0.0,95,0.00,,,0.00,Wunderground v.1.15,2013-03-02 12:25:00,
2013-03-02 06:33:00,29.1,28.0,30.16,West,266,0.0,0.0,96,0.00,,,0.00,weatherlink.com 1.10,2013-03-02 12:33:00,
2013-03-02 06:40:00,29.5,28.5,30.17,West,266,0.0,0.0,96,0.00,,,0.00,Wunderground v.1.15,2013-03-02 12:40:00,
2013-03-02 06:48:00,30.3,29.0,30.17,West,267,0.0,0.0,96,0.00,,,0.00,weatherlink.com 1.10,2013-03-02 12:48:00,
2013-03-02 06:55:00,31.8,30.8,30.17,West,267,0.0,0.0,96,0.00,,,0.00,Wunderground v.1.15,2013-03-02 12:55:00,
2013-03-02 07:00:00,32.7,31.7,30.17,West,266,0.0,0.0,96,0.00,,,0.00,Wunderground v.1.15,2013-03-02 13:00:00,
2013-03-02 07:05:00,33.3,32.0,30.17,West,266,0.0,0.0,95,0.00,,,0.00,Wunderground v.1.15,2013-03-02 13:05:00,
2013-03-02 07:15:00,34.6,33.1,30.17,West,260,0.0,0.0,94,0.00,,,0.00,Wunderground v.1.15,2013-03-02 13:15:00,
2013-03-02 07:25:00,35.2,32.3,30.18,West,259,0.0,0.0,89,0.00,,,0.00,Wunderground v.1.15,2013-03-02 13:25:00,
2013-03-02 07:30:00,35.8,32.3,30.18,NE,54,0.0,0.0,87,0.00,,,0.00,Wunderground v.1.15,2013-03-02 13:30:00,
2013-03-02 07:35:00,36.0,31.9,30.18,West,274,0.0,0.0,85,0.00,,,0.00,Wunderground v.1.15,2013-03-02 13:35:00,
2013-03-02 07:40:00,36.2,31.8,30.19,NW,325,0.0,0.0,84,0.00,,,0.00,Wunderground v.1.15,2013-03-02 13:40:00,
2013-03-02 07:45:00,36.5,32.1,30.19,WNW,287,0.0,0.0,84,0.00,,,0.00,Wunderground v.1.15,2013-03-02 13:45:00,
2013-03-02 07:50:00,36.9,32.8,30.19,NW,308,0.0,0.0,85,0.00,,,0.00,Wunderground v.1.15,2013-03-02 13:50:00,
2013-03-02 08:00:00,37.7,32.1,30.19,West,268,0.0,1.0,80,0.00,,,0.00,Wunderground v.1.15,2013-03-02 14:00:00,
2013-03-02 08:05:00,38.5,32.9,30.19,NE,41,0.0,1.0,80,0.00,,,0.00,Wunderground v.1.15,2013-03-02 14:05:00,
2013-03-02 08:15:00,39.1,31.5,30.19,North,357,1.0,2.0,74,0.00,,,0.00,Wunderground v.1.15,2013-03-02 14:15:00,
2013-03-02 08:20:00,39.9,32.6,30.20,NW,322,1.0,3.0,75,0.00,,,0.00,Wunderground v.1.15,2013-03-02 14:20:00,
2013-03-02 08:25:00,40.1,31.8,30.19,NW,316,1.0,3.0,72,0.00,,,0.00,Wunderground v.1.15,2013-03-02 14:25:00,
2013-03-02 08:33:00,40.7,32.0,30.19,WSW,240,1.0,8.0,71,0.00,,,0.00,weatherlink.com 1.10,2013-03-02 14:33:00,
2013-03-02 08:40:00,41.5,32.8,30.19,NW,318,2.0,2.0,71,0.00,,,0.00,Wunderground v.1.15,2013-03-02 14:40:00,
2013-03-02 08:45:00,41.7,31.9,30.19,SE,143,2.0,2.0,68,0.00,,,0.00,Wunderground v.1.15,2013-03-02 14:45:00,
2013-03-02 08:50:00,42.3,32.5,30.19,WNW,295,1.0,2.0,68,0.00,,,0.00,Wunderground v.1.15,2013-03-02 14:50:00,
2013-03-02 08:55:00,43.0,32.4,30.19,North,351,2.0,2.0,66,0.00,,,0.00,Wunderground v.1.15,2013-03-02 14:55:00,
2013-03-02 09:04:00,43.5,31.0,30.19,ENE,65,5.0,5.0,62,0.00,,,0.00,weatherlink.com 1.10,2013-03-02 15:04:00,
2013-03-02 09:10:00,43.4,30.8,30.19,NE,49,2.0,2.0,61,0.00,,,0.00,Wunderground v.1.15,2013-03-02 15:10:00,
2013-03-02 09:15:00,43.6,31.8,30.19,ENE,65,2.0,2.0,63,0.00,,,0.00,Wunderground v.1.15,2013-03-02 15:15:00,
2013-03-02 09:20:00,44.3,31.7,30.19,ENE,62,1.0,2.0,61,0.00,,,0.00,Wunderground v.1.15,2013-03-02 15:20:00,
2013-03-02 09:25:00,44.6,31.6,30.18,SW,224,2.0,2.0,60,0.00,,,0.00,Wunderground v.1.15,2013-03-02 15:25:00,
2013-03-02 09:30:00,45.1,31.6,30.18,NW,315,2.0,2.0,59,0.00,,,0.00,Wunderground v.1.15,2013-03-02 15:30:00,
2013-03-02 09:40:00,45.7,31.8,30.18,NE,50,2.0,4.0,58,0.00,,,0.00,Wunderground v.1.15,2013-03-02 15:40:00,
2013-03-02 09:45:00,45.4,31.5,30.18,NW,309,2.0,4.0,58,0.00,,,0.00,Wunderground v.1.15,2013-03-02 15:45:00,
2013-03-02 09:55:00,46.7,32.3,30.18,NE,42,2.0,2.0,57,0.00,,,0.00,Wunderground v.1.15,2013-03-02 15:55:00,
2013-03-02 10:00:00,47.2,32.3,30.18,WNW,290,2.0,2.0,56,0.00,,,0.00,Wunderground v.1.15,2013-03-02 16:00:00,
2013-03-02 10:05:00,47.1,30.4,30.17,NNE,25,2.0,4.0,52,0.00,,,0.00,Wunderground v.1.15,2013-03-02 16:05:00,
2013-03-02 10:14:00,47.0,30.3,30.17,West,275,3.0,5.0,52,0.00,,,0.00,Wunderground v.1.15,2013-03-02 16:14:00,
2013-03-02 10:19:00,47.1,31.3,30.17,NW,311,2.0,3.0,54,0.00,,,0.00,Wunderground v.1.15,2013-03-02 16:19:00,
2013-03-02 10:25:00,47.4,30.6,30.17,NW,314,2.0,3.0,52,0.00,,,0.00,Wunderground v.1.15,2013-03-02 16:25:00,
2013-03-02 10:30:00,47.4,31.6,30.16,WNW,297,2.0,2.0,54,0.00,,,0.00,Wunderground v.1.15,2013-03-02 16:30:00,
2013-03-02 10:35:00,47.9,32.5,30.16,SSW,201,2.0,2.0,55,0.00,,,0.00,Wunderground v.1.15,2013-03-02 16:35:00,
2013-03-02 10:40:00,48.1,33.1,30.16,North,8,2.0,2.0,56,0.00,,,0.00,Wunderground v.1.15,2013-03-02 16:40:00,
2013-03-02 10:49:00,48.4,33.0,30.16,ENE,60,3.0,8.0,55,0.00,,,0.00,weatherlink.com 1.10,2013-03-02 16:49:00,
2013-03-02 10:55:00,47.9,30.6,30.16,NNW,344,3.0,3.0,51,0.00,,,0.00,Wunderground v.1.15,2013-03-02 16:55:00,
2013-03-02 11:00:00,47.9,32.9,30.16,East,92,2.0,2.0,56,0.00,,,0.00,Wunderground v.1.15,2013-03-02 17:00:00,
2013-03-02 11:05:00,48.6,32.7,30.15,WNW,283,1.0,3.0,54,0.00,,,0.00,Wunderground v.1.15,2013-03-02 17:05:00,
2013-03-02 11:15:00,48.9,31.5,30.15,NW,314,2.0,8.0,51,0.00,,,0.00,Wunderground v.1.15,2013-03-02 17:15:00,
2013-03-02 11:25:00,48.8,31.9,30.15,WSW,248,2.0,4.0,52,0.00,,,0.00,Wunderground v.1.15,2013-03-02 17:25:00,
2013-03-02 11:30:00,48.8,31.5,30.15,WSW,245,2.0,2.0,51,0.00,,,0.00,Wunderground v.1.15,2013-03-02 17:30:00,
2013-03-02 11:35:00,48.8,31.5,30.14,NW,320,2.0,3.0,51,0.00,,,0.00,Wunderground v.1.15,2013-03-02 17:35:00,
2013-03-02 11:40:00,49.2,33.3,30.14,NE,41,2.0,2.0,54,0.00,,,0.00,Wunderground v.1.15,2013-03-02 17:40:00,
2013-03-02 11:48:00,49.1,31.0,30.14,NNE,13,5.0,10.0,50,0.00,,,0.00,weatherlink.com 1.10,2013-03-02 17:48:00,
2013-03-02 11:55:00,49.1,32.2,30.14,North,3,3.0,6.0,52,0.00,,,0.00,Wunderground v.1.15,2013-03-02 17:55:00,
2013-03-02 12:00:00,50.0,33.1,30.13,NW,308,2.0,2.0,52,0.00,,,0.00,Wunderground v.1.15,2013-03-02 18:00:00,
2013-03-02 12:05:00,50.8,33.3,30.13,WNW,295,2.0,3.0,51,0.00,,,0.00,Wunderground v.1.15,2013-03-02 18:05:00,
2013-03-02 12:15:00,49.5,31.6,30.13,North,358,3.0,3.0,50,0.00,,,0.00,Wunderground v.1.15,2013-03-02 18:15:00,
2013-03-02 12:20:00,50.8,32.3,30.12,NW,308,3.0,10.0,49,0.00,,,0.00,Wunderground v.1.15,2013-03-02 18:20:00,
2013-03-02 12:25:00,50.0,32.1,30.12,SW,214,3.0,10.0,50,0.00,,,0.00,Wunderground v.1.15,2013-03-02 18:25:00,
2013-03-02 12:34:00,49.7,32.0,30.12,WSW,239,1.0,7.0,51,0.00,,,0.00,weatherlink.com 1.10,2013-03-02 18:34:00,
2013-03-02 12:40:00,50.0,32.1,30.12,North,350,3.0,3.0,50,0.00,,,0.00,Wunderground v.1.15,2013-03-02 18:40:00,
2013-03-02 12:45:00,49.0,31.6,30.12,NNW,327,3.0,3.0,51,0.00,,,0.00,Wunderground v.1.15,2013-03-02 18:45:00,
2013-03-02 12:50:00,48.7,31.4,30.11,NNW,342,2.0,2.0,51,0.00,,,0.00,Wunderground v.1.15,2013-03-02 18:50:00,
2013-03-02 12:55:00,48.6,31.8,30.11,NW,311,2.0,2.0,52,0.00,,,0.00,Wunderground v.1.15,2013-03-02 18:55:00,
2013-03-02 13:00:00,48.9,31.1,30.11,West,275,3.0,3.0,50,0.00,,,0.00,Wunderground v.1.15,2013-03-02 19:00:00,
2013-03-02 13:05:00,48.7,30.4,30.11,NW,312,3.0,3.0,49,0.00,,,0.00,Wunderground v.1.15,2013-03-02 19:05:00,
2013-03-02 13:15:00,47.8,31.9,30.10,ENE,72,3.0,5.0,54,0.00,,,0.00,Wunderground v.1.15,2013-03-02 19:15:00,
2013-03-02 13:34:00,47.6,31.0,30.11,West,280,2.0,10.0,53,0.00,,,0.00,weatherlink.com 1.10,2013-03-02 19:34:00,
2013-03-02 13:49:00,47.0,30.0,30.11,North,358,3.0,9.0,53,0.00,,,0.00,weatherlink.com 1.10,2013-03-02 19:49:00,
2013-03-02 14:04:00,46.5,30.0,30.11,WNW,302,1.0,7.0,53,0.00,,,0.00,weatherlink.com 1.10,2013-03-02 20:04:00,
2013-03-02 14:19:00,46.8,30.0,30.11,NW,321,1.0,5.0,53,0.00,,,0.00,weatherlink.com 1.10,2013-03-02 20:19:00,
2013-03-02 14:34:00,46.7,31.0,30.10,WNW,293,0.0,7.0,54,0.00,,,0.00,weatherlink.com 1.10,2013-03-02 20:34:00,
2013-03-02 14:50:00,46.6,30.0,30.10,NNW,347,1.0,7.0,53,0.00,,,0.00,weatherlink.com 1.10,2013-03-02 20:50:00,
2013-03-02 14:55:00,46.3,30.1,30.10,WNW,287,1.0,6.0,53,0.00,,,0.00,Wunderground v.1.15,2013-03-02 20:55:00,
2013-03-02 15:00:00,46.1,29.9,30.10,WSW,255,2.0,2.0,53,0.00,,,0.00,Wunderground v.1.15,2013-03-02 21:00:00,
2013-03-02 15:05:00,46.1,30.4,30.10,WNW,288,2.0,5.0,54,0.00,,,0.00,Wunderground v.1.15,2013-03-02 21:05:00,
2013-03-02 15:14:00,45.7,30.0,30.10,West,263,3.0,3.0,54,0.00,,,0.00,Wunderground v.1.15,2013-03-02 21:14:00,
2013-03-02 15:19:00,45.7,29.0,30.10,West,266,2.0,7.0,53,0.00,,,0.00,weatherlink.com 1.10,2013-03-02 21:19:00,
2013-03-02 15:25:00,45.6,29.9,30.10,West,281,2.0,2.0,54,0.00,,,0.00,Wunderground v.1.15,2013-03-02 21:25:00,
2013-03-02 15:30:00,45.7,30.9,30.10,East,100,2.0,2.0,56,0.00,,,0.00,Wunderground v.1.15,2013-03-02 21:30:00,
2013-03-02 15:35:00,45.9,30.2,30.10,NNW,342,1.0,5.0,54,0.00,,,0.00,Wunderground v.1.15,2013-03-02 21:35:00,
2013-03-02 15:40:00,45.4,29.3,30.10,West,259,2.0,2.0,53,0.00,,,0.00,Wunderground v.1.15,2013-03-02 21:40:00,
2013-03-02 15:45:00,45.2,29.5,30.11,West,269,2.0,5.0,54,0.00,,,0.00,Wunderground v.1.15,2013-03-02 21:45:00,
2013-03-02 15:50:00,44.7,29.0,30.11,WNW,300,2.0,9.0,54,0.00,,,0.00,weatherlink.com 1.10,2013-03-02 21:50:00,
2013-03-02 16:00:00,44.3,29.1,30.11,NW,318,2.0,3.0,55,0.00,,,0.00,Wunderground v.1.15,2013-03-02 22:00:00,
2013-03-02 16:05:00,44.2,29.0,30.11,NNW,329,3.0,8.0,56,0.00,,,0.00,weatherlink.com 1.10,2013-03-02 22:05:00,
2013-03-02 16:15:00,43.7,29.0,30.12,West,263,2.0,7.0,56,0.00,,,0.00,Wunderground v.1.15,2013-03-02 22:15:00,
2013-03-02 16:20:00,43.6,29.0,30.12,NNW,330,3.0,9.0,56,0.00,,,0.00,weatherlink.com 1.10,2013-03-02 22:20:00,
2013-03-02 16:25:00,43.5,29.3,30.12,WNW,288,2.0,5.0,57,0.00,,,0.00,Wunderground v.1.15,2013-03-02 22:25:00,
2013-03-02 16:30:00,43.3,28.6,30.12,WNW,291,2.0,3.0,56,0.00,,,0.00,Wunderground v.1.15,2013-03-02 22:30:00,
2013-03-02 16:35:00,43.3,29.0,30.12,NNW,335,1.0,9.0,57,0.00,,,0.00,weatherlink.com 1.10,2013-03-02 22:35:00,
2013-03-02 16:45:00,43.1,28.5,30.12,NW,316,2.0,4.0,56,0.00,,,0.00,Wunderground v.1.15,2013-03-02 22:45:00,
2013-03-02 16:50:00,43.0,28.0,30.12,WNW,288,0.0,7.0,56,0.00,,,0.00,weatherlink.com 1.10,2013-03-02 22:50:00,
2013-03-02 17:00:00,42.9,29.1,30.13,NW,321,2.0,2.0,58,0.00,,,0.00,Wunderground v.1.15,2013-03-02 23:00:00,
2013-03-02 17:05:00,42.8,29.0,30.13,ENE,62,1.0,8.0,59,0.00,,,0.00,weatherlink.com 1.10,2013-03-02 23:05:00,
2013-03-02 17:15:00,42.4,28.7,30.13,WNW,291,2.0,2.0,58,0.00,,,0.00,Wunderground v.1.15,2013-03-02 23:15:00,
2013-03-02 17:21:00,42.4,28.0,30.14,ENE,60,0.0,7.0,58,0.00,,,0.00,weatherlink.com 1.10,2013-03-02 23:21:00,
2013-03-02 17:30:00,42.1,28.4,30.14,NW,314,1.0,2.0,58,0.00,,,0.00,Wunderground v.1.15,2013-03-02 23:30:00,
2013-03-02 17:35:00,41.9,29.0,30.14,South,190,0.0,8.0,60,0.00,,,0.00,weatherlink.com 1.10,2013-03-02 23:35:00,
2013-03-02 17:40:00,41.7,28.4,30.14,NNW,336,2.0,2.0,59,0.00,,,0.00,Wunderground v.1.15,2013-03-02 23:40:00,
2013-03-02 17:45:00,41.6,28.3,30.15,WNW,300,2.0,2.0,59,0.00,,,0.00,Wunderground v.1.15,2013-03-02 23:45:00,
2013-03-02 17:50:00,41.5,28.0,30.15,ESE,113,4.0,9.0,60,0.00,,,0.00,weatherlink.com 1.10,2013-03-02 23:50:00,
2013-03-02 17:55:00,41.4,28.1,30.15,WNW,303,2.0,8.0,59,0.00,,,0.00,Wunderground v.1.15,2013-03-02 23:55:00,
2013-03-02 18:00:00,41.2,28.4,30.15,WNW,300,2.0,2.0,60,0.00,,,0.00,Wunderground v.1.15,2013-03-03 00:00:00,
2013-03-02 18:05:00,41.1,28.0,30.16,East,79,0.0,6.0,61,0.00,,,0.00,weatherlink.com 1.10,2013-03-03 00:05:00,
2013-03-02 18:10:00,40.9,28.5,30.16,NNE,15,1.0,1.0,61,0.00,,,0.00,Wunderground v.1.15,2013-03-03 00:10:00,
2013-03-02 18:15:00,40.9,28.5,30.16,NW,311,2.0,2.0,61,0.00,,,0.00,Wunderground v.1.15,2013-03-03 00:15:00,
2013-03-02 18:21:00,40.7,28.0,30.17,West,274,3.0,8.0,61,0.00,,,0.00,weatherlink.com 1.10,2013-03-03 00:21:00,
2013-03-02 18:30:00,40.6,28.2,30.17,WNW,291,2.0,2.0,61,0.00,,,0.00,Wunderground v.1.15,2013-03-03 00:30:00,
2013-03-02 18:35:00,40.5,28.0,30.17,NNW,338,0.0,7.0,61,0.00,,,0.00,weatherlink.com 1.10,2013-03-03 00:35:00,
2013-03-02 18:40:00,40.5,28.1,30.17,ENE,60,2.0,2.0,61,0.00,,,0.00,Wunderground v.1.15,2013-03-03 00:40:00,
2013-03-02 18:45:00,40.4,28.0,30.18,NW,324,2.0,3.0,61,0.00,,,0.00,Wunderground v.1.15,2013-03-03 00:45:00,
2013-03-02 18:50:00,40.3,28.0,30.18,NE,51,1.0,7.0,62,0.00,,,0.00,weatherlink.com 1.10,2013-03-03 00:50:00,
2013-03-02 19:00:00,40.2,28.2,30.18,NW,319,2.0,2.0,62,0.00,,,0.00,Wunderground v.1.15,2013-03-03 01:00:00,
2013-03-02 19:05:00,40.2,28.0,30.18,NW,326,2.0,7.0,63,0.00,,,0.00,weatherlink.com 1.10,2013-03-03 01:05:00,
2013-03-02 19:15:00,40.2,28.6,30.18,WNW,297,2.0,2.0,63,0.00,,,0.00,Wunderground v.1.15,2013-03-03 01:15:00,
2013-03-02 19:20:00,40.1,28.5,30.18,WSW,240,1.0,2.0,63,0.00,,,0.00,Wunderground v.1.15,2013-03-03 01:20:00,
2013-03-02 19:25:00,40.1,28.5,30.19,NNW,344,2.0,2.0,63,0.00,,,0.00,Wunderground v.1.15,2013-03-03 01:25:00,
2013-03-02 19:30:00,40.1,28.5,30.19,North,354,2.0,3.0,63,0.00,,,0.00,Wunderground v.1.15,2013-03-03 01:30:00,
2013-03-02 19:35:00,40.0,28.0,30.19,NW,318,2.0,7.0,63,0.00,,,0.00,weatherlink.com 1.10,2013-03-03 01:35:00,
2013-03-02 19:44:00,40.0,28.8,30.19,NW,310,2.0,5.0,64,0.00,,,0.00,Wunderground v.1.15,2013-03-03 01:44:00,
2013-03-02 19:49:00,40.0,29.0,30.19,West,270,2.0,7.0,64,0.00,,,0.00,weatherlink.com 1.10,2013-03-03 01:49:00,
2013-03-02 19:55:00,39.9,29.1,30.19,WSW,255,1.0,4.0,65,0.00,,,0.00,Wunderground v.1.15,2013-03-03 01:55:00,
2013-03-02 20:00:00,39.9,29.1,30.19,WNW,292,2.0,4.0,65,0.00,,,0.00,Wunderground v.1.15,2013-03-03 02:00:00,
2013-03-02 20:05:00,39.8,29.0,30.19,NW,309,0.0,7.0,65,0.00,,,0.00,weatherlink.com 1.10,2013-03-03 02:05:00,
2013-03-02 20:10:00,39.7,28.9,30.19,NNW,347,1.0,2.0,65,0.00,,,0.00,Wunderground v.1.15,2013-03-03 02:10:00,
2013-03-02 20:15:00,39.6,28.4,30.20,NW,321,2.0,2.0,64,0.00,,,0.00,Wunderground v.1.15,2013-03-03 02:15:00,
2013-03-02 20:21:00,39.5,28.0,30.20,NE,38,1.0,6.0,63,0.00,,,0.00,weatherlink.com 1.10,2013-03-03 02:21:00,
2013-03-02 20:30:00,39.4,28.2,30.20,West,259,2.0,2.0,64,0.00,,,0.00,Wunderground v.1.15,2013-03-03 02:30:00,
2013-03-02 20:35:00,39.4,28.0,30.20,NW,315,1.0,6.0,65,0.00,,,0.00,weatherlink.com 1.10,2013-03-03 02:35:00,
2013-03-02 20:45:00,39.4,28.6,30.21,West,277,1.0,1.0,65,0.00,,,0.00,Wunderground v.1.15,2013-03-03 02:45:00,
2013-03-02 20:50:00,39.3,28.9,30.21,NNW,327,1.0,1.0,66,0.00,,,0.00,Wunderground v.1.15,2013-03-03 02:50:00,
2013-03-02 21:00:00,39.2,28.0,30.21,West,266,1.0,1.0,64,0.00,,,0.00,Wunderground v.1.15,2013-03-03 03:00:00,
2013-03-02 21:05:00,39.1,28.0,30.21,NNW,336,1.0,6.0,65,0.00,,,0.00,weatherlink.com 1.10,2013-03-03 03:05:00,
2013-03-02 21:15:00,39.0,28.6,30.21,NNW,328,1.0,3.0,66,0.00,,,0.00,Wunderground v.1.15,2013-03-03 03:15:00,
2013-03-02 21:20:00,39.0,28.0,30.21,SE,133,0.0,6.0,65,0.00,,,0.00,weatherlink.com 1.10,2013-03-03 03:20:00,
2013-03-02 21:30:00,38.9,27.8,30.22,ENE,77,1.0,3.0,64,0.00,,,0.00,Wunderground v.1.15,2013-03-03 03:30:00,
2013-03-02 21:35:00,38.9,28.1,30.22,WNW,300,1.0,3.0,65,0.00,,,0.00,Wunderground v.1.15,2013-03-03 03:35:00,
2013-03-02 21:40:00,38.9,28.1,30.22,North,8,1.0,1.0,65,0.00,,,0.00,Wunderground v.1.15,2013-03-03 03:40:00,
2013-03-02 21:45:00,38.8,28.0,30.22,WNW,294,1.0,1.0,65,0.00,,,0.00,Wunderground v.1.15,2013-03-03 03:45:00,
2013-03-02 21:50:00,38.8,28.0,30.22,ENE,68,2.0,3.0,65,0.00,,,0.00,Wunderground v.1.15,2013-03-03 03:50:00,
2013-03-02 21:55:00,38.7,27.9,30.22,NE,42,2.0,3.0,65,0.00,,,0.00,Wunderground v.1.15,2013-03-03 03:55:00,
2013-03-02 22:05:00,38.7,27.9,30.22,WSW,248,1.0,2.0,65,0.00,,,0.00,Wunderground v.1.15,2013-03-03 04:05:00,
2013-03-02 22:20:00,38.6,27.8,30.22,West,271,1.0,1.0,65,0.00,,,0.00,Wunderground v.1.15,2013-03-03 04:20:00,
2013-03-02 22:25:00,38.5,28.1,30.22,East,96,1.0,3.0,66,0.00,,,0.00,Wunderground v.1.15,2013-03-03 04:25:00,
2013-03-02 22:30:00,38.5,28.1,30.22,SW,231,2.0,2.0,66,0.00,,,0.00,Wunderground v.1.15,2013-03-03 04:30:00,
2013-03-02 22:35:00,38.5,28.1,30.22,SW,214,2.0,2.0,66,0.00,,,0.00,Wunderground v.1.15,2013-03-03 04:35:00,
2013-03-02 22:45:00,38.4,28.0,30.22,NW,312,1.0,1.0,66,0.00,,,0.00,Wunderground v.1.15,2013-03-03 04:45:00,
2013-03-02 22:50:00,38.3,27.9,30.21,ESE,117,1.0,1.0,66,0.00,,,0.00,Wunderground v.1.15,2013-03-03 04:50:00,
2013-03-02 22:55:00,38.3,27.6,30.21,WSW,248,1.0,1.0,65,0.00,,,0.00,Wunderground v.1.15,2013-03-03 04:55:00,
2013-03-02 23:00:00,38.2,27.8,30.21,NW,305,1.0,3.0,66,0.00,,,0.00,Wunderground v.1.15,2013-03-03 05:00:00,
2013-03-02 23:05:00,38.2,27.8,30.20,NNW,331,1.0,3.0,66,0.00,,,0.00,Wunderground v.1.15,2013-03-03 05:05:00,
2013-03-02 23:15:00,38.0,27.3,30.21,NW,316,1.0,1.0,65,0.00,,,0.00,Wunderground v.1.15,2013-03-03 05:15:00,
2013-03-02 23:20:00,38.0,27.3,30.21,WNW,282,1.0,1.0,65,0.00,,,0.00,Wunderground v.1.15,2013-03-03 05:20:00,
2013-03-02 23:21:00,37.9,27.0,30.20,WSW,253,0.0,5.0,65,0.00,,,0.00,weatherlink.com 1.10,2013-03-03 05:21:00,
2013-03-02 23:30:00,37.8,27.1,30.20,WNW,297,1.0,1.0,65,0.00,,,0.00,Wunderground v.1.15,2013-03-03 05:30:00,
2013-03-02 23:36:00,37.8,27.0,30.20,NW,311,1.0,3.0,66,0.00,,,0.00,weatherlink.com 1.10,2013-03-03 05:36:00,
2013-03-02 23:45:00,37.7,27.4,30.20,WNW,298,1.0,2.0,66,0.00,,,0.00,Wunderground v.1.15,2013-03-03 05:45:00,
2013-03-02 23:50:00,37.7,28.0,30.20,WNW,287,1.0,4.0,67,0.00,,,0.00,weatherlink.com 1.10,2013-03-03 05:50:00,